Time;durP1;ratioP1;P1;durP2;ratioP2;P2;SDS_P1;SDS_P2;PMS_P1;PMS_P2;Temp;Humidity;BMP_temperature;BMP_pressure;BME280_temperature;BME280_humidity;BME280_pressure;Samples;Min_cycle;Max_cycle;Signal;HPM_P1;HPM_P2
2021/04/05 00:00:08;;;;;;;9.65;4.45;;;;;;;4.14;72.02;99984.16;5027021;28;20038;-22
2021/04/05 00:02:33;;;;;;;8.07;4.35;;;;;;;3.77;73.19;99980.50;5027457;28;20123;-22
2021/04/05 00:04:59;;;;;;;7.93;4.25;;;;;;;3.90;74.12;99980.72;5009287;28;20477;-21
2021/04/05 00:07:24;;;;;;;8.45;4.85;;;;;;;4.03;73.81;99985.41;5027347;28;20033;-21
2021/04/05 00:09:50;;;;;;;9.02;4.72;;;;;;;3.70;73.57;99961.09;5026849;28;20033;-21
2021/04/05 00:12:15;;;;;;;8.20;4.38;;;;;;;4.10;72.67;99982.88;5026981;28;20029;-22
2021/04/05 00:14:42;;;;;;;9.10;5.35;;;;;;;4.20;72.33;99972.88;5026963;28;20069;-21
2021/04/05 00:17:07;;;;;;;9.48;5.53;;;;;;;3.78;73.42;99971.56;5027047;28;20025;-22
2021/04/05 00:19:33;;;;;;;10.00;5.50;;;;;;;3.93;73.41;99961.91;5026961;28;20108;-20
2021/04/05 00:21:59;;;;;;;10.00;5.40;;;;;;;3.96;74.04;99972.13;5027227;28;20036;-22
2021/04/05 00:24:24;;;;;;;10.18;5.63;;;;;;;4.29;72.26;99990.31;5026855;28;20140;-21
2021/04/05 00:26:50;;;;;;;13.40;6.70;;;;;;;4.01;73.31;99990.84;5027123;28;20033;-22
2021/04/05 00:29:15;;;;;;;24.88;10.48;;;;;;;4.16;72.88;99963.69;5026589;28;20037;-22
2021/04/05 00:31:41;;;;;;;24.13;10.93;;;;;;;4.29;72.45;99979.75;5027382;28;20033;-22
2021/04/05 00:34:07;;;;;;;19.65;9.40;;;;;;;4.11;73.20;99984.53;5030357;28;20037;-20
2021/04/05 00:36:32;;;;;;;23.25;10.43;;;;;;;4.13;72.98;99993.09;5030689;28;20500;-20
2021/04/05 00:38:58;;;;;;;15.05;6.53;;;;;;;4.46;73.35;99992.78;5030851;28;20037;-22
2021/04/05 00:41:23;;;;;;;36.20;13.65;;;;;;;4.42;71.96;99972.00;5030679;28;20025;-22
2021/04/05 00:43:50;;;;;;;21.15;8.63;;;;;;;4.37;72.32;99984.94;4996479;28;20071;-22
2021/04/05 00:46:20;;;;;;;32.88;12.05;;;;;;;4.56;72.26;99995.97;5030360;28;20044;-21
2021/04/05 00:48:46;;;;;;;58.92;18.77;;;;;;;4.19;73.17;99974.72;5030683;28;20843;-22
2021/04/05 00:51:12;;;;;;;30.50;13.73;;;;;;;4.20;73.12;99978.97;4996897;28;20049;-22
2021/04/05 00:53:40;;;;;;;20.40;9.73;;;;;;;4.41;72.56;99966.88;5030396;28;20394;-22
2021/04/05 00:56:06;;;;;;;22.98;10.82;;;;;;;4.19;72.48;99971.25;5030255;28;20563;-18
2021/04/05 00:58:31;;;;;;;30.88;12.00;;;;;;;4.41;72.51;99969.53;5030252;28;20124;-21
2021/04/05 01:01:02;;;;;;;37.50;16.08;;;;;;;4.30;72.04;99952.31;5030341;28;20034;-22
2021/04/05 01:03:30;;;;;;;19.35;9.57;;;;;;;4.58;72.34;99964.91;5030342;28;20030;-22
2021/04/05 01:06:00;;;;;;;19.83;9.13;;;;;;;4.74;70.29;99966.53;5030729;28;20035;-21
2021/04/05 01:08:26;;;;;;;12.27;6.50;;;;;;;4.68;71.36;99970.75;5029851;28;20116;-21
2021/04/05 01:10:52;;;;;;;11.80;6.70;;;;;;;4.57;71.90;99969.34;5029989;28;20033;-21
2021/04/05 01:13:18;;;;;;;12.05;6.13;;;;;;;4.40;72.38;99968.72;5030102;28;20087;-20
2021/04/05 01:15:43;;;;;;;10.45;6.22;;;;;;;4.39;72.08;99955.69;5030117;28;20096;-22
2021/04/05 01:18:09;;;;;;;14.10;7.22;;;;;;;4.05;73.59;99958.84;5030019;28;20060;-22
2021/04/05 01:20:35;;;;;;;11.68;6.82;;;;;;;4.26;73.07;99972.16;5030456;28;20041;-21
2021/04/05 01:23:01;;;;;;;15.48;7.97;;;;;;;4.23;73.50;99961.97;5012071;28;20523;-22
2021/04/05 01:25:26;;;;;;;13.55;7.60;;;;;;;4.06;74.27;99963.13;5030025;28;20060;-22
2021/04/05 01:27:52;;;;;;;11.95;7.30;;;;;;;4.17;73.75;99967.97;5029822;28;20039;-21
2021/04/05 01:30:32;;;;;;;11.98;6.88;;;;;;;3.83;74.91;99964.78;5029566;28;20142;-21
2021/04/05 01:33:08;;;;;;;12.48;6.88;;;;;;;4.28;73.41;99970.16;5029816;28;20052;-21
2021/04/05 01:35:38;;;;;;;15.10;8.15;;;;;;;3.78;75.26;99947.84;5029691;28;20108;-21
2021/04/05 01:38:04;;;;;;;13.00;7.72;;;;;;;4.15;73.71;99956.78;5029829;28;20060;-21
2021/04/05 01:40:33;;;;;;;13.27;7.55;;;;;;;4.20;74.08;99957.84;5011855;28;20029;-21
2021/04/05 01:42:59;;;;;;;13.50;6.93;;;;;;;4.31;73.85;99937.28;5029229;28;20083;-21
2021/04/05 01:45:24;;;;;;;17.80;10.30;;;;;;;4.65;72.41;99934.13;5028853;28;20029;-21
2021/04/05 01:47:50;;;;;;;15.43;8.57;;;;;;;4.77;71.19;99948.50;5029381;28;20076;-21
2021/04/05 01:50:15;;;;;;;11.85;7.00;;;;;;;4.49;73.60;99948.31;5029097;28;20148;-22
2021/04/05 01:52:41;;;;;;;21.55;10.52;;;;;;;4.15;73.08;99927.75;5011521;28;20420;-21
2021/04/05 01:55:08;;;;;;;21.70;11.35;;;;;;;4.61;73.22;99938.13;5029317;28;20034;-21
2021/04/05 01:57:34;;;;;;;16.98;8.80;;;;;;;4.73;72.32;99941.13;5029178;28;20393;-21
2021/04/05 02:00:00;;;;;;;16.63;8.77;;;;;;;5.08;71.00;99950.09;4995381;28;20485;-19
2021/04/05 02:02:26;;;;;;;22.33;11.90;;;;;;;4.91;70.78;99944.19;5029243;28;20033;-21
2021/04/05 02:04:51;;;;;;;16.92;8.50;;;;;;;4.58;72.16;99959.63;4995278;28;20481;-21
2021/04/05 02:07:17;;;;;;;16.90;9.38;;;;;;;4.45;72.97;99952.31;5011576;28;20029;-21
2021/04/05 02:09:43;;;;;;;26.83;12.75;;;;;;;4.65;71.83;99955.25;5029289;28;20026;-21
2021/04/05 02:12:09;;;;;;;17.48;8.20;;;;;;;4.43;72.30;99931.41;5028830;28;20452;-21
2021/04/05 02:14:34;;;;;;;11.52;6.78;;;;;;;4.54;72.92;99942.50;5011608;28;20477;-22
2021/04/05 02:16:59;;;;;;;9.75;6.05;;;;;;;4.42;72.77;99956.16;5011304;28;20056;-20
2021/04/05 02:19:25;;;;;;;11.45;6.75;;;;;;;4.25;73.46;99943.31;4995073;28;20132;-21
2021/04/05 02:21:51;;;;;;;12.13;7.25;;;;;;;4.48;73.55;99959.09;4995000;28;20779;-21
2021/04/05 02:24:16;;;;;;;11.15;6.10;;;;;;;4.67;72.55;99963.81;4994713;28;20478;-21
2021/04/05 02:26:42;;;;;;;11.68;6.60;;;;;;;4.97;72.23;99980.47;5010947;28;20038;-21
2021/04/05 02:29:08;;;;;;;10.77;7.03;;;;;;;4.83;72.49;99968.91;4994931;28;20056;-22
2021/04/05 02:31:34;;;;;;;10.00;5.80;;;;;;;4.60;73.05;99968.19;5028761;28;20018;-21
2021/04/05 02:34:00;;;;;;;12.13;6.18;;;;;;;4.59;73.66;99974.47;5011003;28;20045;-22
2021/04/05 02:36:27;;;;;;;10.98;5.97;;;;;;;4.26;74.01;99956.31;5010628;28;20048;-21
2021/04/05 02:38:57;;;;;;;11.23;6.10;;;;;;;4.65;72.33;99949.97;5028477;28;20026;-21
2021/04/05 02:41:24;;;;;;;10.98;6.07;;;;;;;4.64;72.83;99945.69;5028310;28;20037;-21
2021/04/05 02:43:51;;;;;;;11.85;6.10;;;;;;;4.42;73.69;99944.78;5028338;28;20508;-21
2021/04/05 02:46:18;;;;;;;24.17;8.15;;;;;;;4.91;72.41;99953.97;5010476;28;20057;-21
2021/04/05 02:48:45;;;;;;;11.50;6.82;;;;;;;4.93;73.04;99963.34;4994038;28;20030;-21
2021/04/05 02:51:11;;;;;;;10.50;6.15;;;;;;;4.80;72.29;99960.50;5010982;28;20108;-22
2021/04/05 02:53:40;;;;;;;12.73;6.45;;;;;;;5.16;71.08;99957.91;4994181;28;20116;-23
2021/04/05 02:56:06;;;;;;;12.15;6.60;;;;;;;4.97;71.97;99969.06;5010439;28;20061;-21
2021/04/05 02:58:32;;;;;;;11.98;6.85;;;;;;;4.63;73.05;99978.38;5010593;28;20593;-21
2021/04/05 03:00:58;;;;;;;14.02;8.18;;;;;;;4.70;72.96;99974.03;5010314;28;20030;-21
2021/04/05 03:03:24;;;;;;;15.70;9.23;;;;;;;4.70;73.42;99981.09;4993917;28;20031;-21
2021/04/05 03:05:49;;;;;;;15.63;8.13;;;;;;;4.35;74.20;99986.94;4994217;28;20029;-21
2021/04/05 03:08:16;;;;;;;18.48;9.82;;;;;;;4.46;74.03;99984.84;4993629;28;20485;-19
2021/04/05 03:10:42;;;;;;;17.35;8.93;;;;;;;4.43;74.13;99997.41;5028026;28;20410;-19
2021/04/05 03:13:07;;;;;;;17.90;9.52;;;;;;;4.23;74.03;99993.66;5010368;28;20470;-21
2021/04/05 03:15:33;;;;;;;17.35;9.40;;;;;;;4.52;73.55;99978.84;4993864;28;20017;-21
2021/04/05 03:18:01;;;;;;;15.52;9.65;;;;;;;4.68;73.13;99999.81;5028024;28;20037;-21
2021/04/05 03:20:31;;;;;;;17.55;10.30;;;;;;;4.97;72.67;100006.06;4993876;28;20033;-26
2021/04/05 03:22:56;;;;;;;16.50;9.43;;;;;;;5.12;71.99;99993.66;5027649;28;20052;-20
2021/04/05 03:25:23;;;;;;;17.08;9.45;;;;;;;5.00;71.86;100003.06;5010242;28;20026;-21
2021/04/05 03:27:49;;;;;;;17.17;9.07;;;;;;;4.68;72.30;99981.31;5010518;28;20087;-22
2021/04/05 03:30:17;;;;;;;16.25;8.65;;;;;;;4.82;72.81;100000.78;5009755;28;20021;-21
2021/04/05 03:32:43;;;;;;;15.95;9.27;;;;;;;4.99;72.36;99989.03;5027779;28;20822;-21
2021/04/05 03:35:11;;;;;;;18.67;9.93;;;;;;;5.12;72.12;100001.56;5009742;28;20032;-21
2021/04/05 03:37:36;;;;;;;18.58;11.50;;;;;;;4.88;72.51;99999.22;5009894;28;20040;-21
2021/04/05 03:40:05;;;;;;;18.80;10.40;;;;;;;4.93;73.69;100013.53;5009869;28;20433;-21
2021/04/05 03:42:44;;;;;;;;;;;;;;;5.15;71.72;100014.44;5010262;28;20440;-22
2021/04/05 03:45:44;;;;;;;19.50;9.90;;;;;;;5.15;72.75;100009.16;5010000;28;19913;-21
2021/04/05 03:48:21;;;;;;;15.23;8.95;;;;;;;5.12;71.77;99988.34;5017688;28;20517;-21
2021/04/05 03:51:10;;;;;;;16.45;9.52;;;;;;;5.09;72.46;100004.59;5009408;28;20061;-21
2021/04/05 03:53:42;;;;;;;17.65;9.57;;;;;;;5.31;70.82;100002.00;5017798;28;20131;-21
2021/04/05 03:56:17;;;;;;;16.48;9.25;;;;;;;5.43;70.67;100004.00;5009116;28;20445;-21
2021/04/05 03:58:47;;;;;;;17.20;9.10;;;;;;;5.29;70.20;99983.69;5010292;28;20036;-21
2021/04/05 04:01:17;;;;;;;17.55;9.75;;;;;;;4.58;72.45;99980.75;4993350;28;20061;-21
2021/04/05 04:04:20;;;;;;;19.05;10.98;;;;;;;4.61;72.77;99985.66;5010080;28;20100;-21
2021/04/05 04:06:59;;;;;;;16.55;10.00;;;;;;;4.96;73.07;100004.41;5008756;28;20075;-21
2021/04/05 04:09:23;;;;;;;18.52;10.15;;;;;;;5.27;72.09;99995.44;5012337;28;20025;-21
2021/04/05 04:11:50;;;;;;;19.85;10.98;;;;;;;4.93;72.37;100015.38;4993022;28;20044;-20
2021/04/05 04:14:16;;;;;;;32.53;17.42;;;;;;;5.09;72.75;100025.75;4993138;28;20021;-21
2021/04/05 04:16:43;;;;;;;34.75;21.10;;;;;;;4.76;73.90;100020.00;4993039;28;20025;-21
2021/04/05 04:19:08;;;;;;;50.08;26.73;;;;;;;5.07;72.74;100021.63;4993194;28;20410;-20
2021/04/05 04:21:36;;;;;;;28.17;17.17;;;;;;;4.94;72.62;100011.72;5027304;28;20033;-21
2021/04/05 04:24:02;;;;;;;26.50;16.02;;;;;;;5.45;72.34;100019.66;5027149;28;20029;-21
2021/04/05 04:26:31;;;;;;;22.70;12.48;;;;;;;5.38;71.31;100002.91;4992941;28;20041;-21
2021/04/05 04:28:57;;;;;;;19.25;11.57;;;;;;;5.29;72.43;100031.28;5027007;28;20036;-21
2021/04/05 04:31:22;;;;;;;21.88;12.00;;;;;;;5.16;72.41;100009.97;5027160;28;20034;-21
2021/04/05 04:33:48;;;;;;;18.13;11.15;;;;;;;5.00;73.07;100024.19;4992648;28;20040;-21
2021/04/05 04:36:23;;;;;;;20.05;11.57;;;;;;;5.16;72.32;100029.28;5026539;28;20129;-21
2021/04/05 04:38:55;;;;;;;36.42;18.67;;;;;;;5.20;72.73;100022.63;4994206;28;20021;-21
2021/04/05 04:41:26;;;;;;;22.98;12.73;;;;;;;5.11;73.30;100026.38;5009108;28;20033;-20
2021/04/05 04:43:55;;;;;;;25.17;14.25;;;;;;;5.35;72.25;99997.97;5026858;28;20029;-21
2021/04/05 04:46:21;;;;;;;18.80;12.23;;;;;;;5.54;71.42;100018.53;5026482;28;20034;-21
2021/04/05 04:48:46;;;;;;;18.92;12.23;;;;;;;5.23;72.16;100016.13;5008690;28;20037;-21
2021/04/05 04:51:12;;;;;;;18.00;11.20;;;;;;;5.23;73.48;100027.56;5026743;28;20033;-21
2021/04/05 04:53:37;;;;;;;15.98;9.75;;;;;;;5.49;71.89;100035.97;5026693;28;20029;-22
2021/04/05 04:56:03;;;;;;;20.17;12.90;;;;;;;5.63;72.62;100030.63;5026704;28;20033;-19
2021/04/05 04:58:28;;;;;;;24.80;14.45;;;;;;;5.20;73.01;100033.19;5026836;28;20037;-22
2021/04/05 05:00:54;;;;;;;13.07;8.63;;;;;;;5.17;73.23;100032.75;5026488;28;20037;-21
2021/04/05 05:03:20;;;;;;;13.02;8.20;;;;;;;5.26;73.30;100023.72;5026766;28;20040;-21
2021/04/05 05:05:45;;;;;;;12.98;8.45;;;;;;;5.56;71.56;100043.00;4992696;28;20025;-21
2021/04/05 05:08:11;;;;;;;15.15;9.10;;;;;;;5.32;73.12;100045.97;5008925;28;20034;-21
2021/04/05 05:10:36;;;;;;;15.38;10.07;;;;;;;5.56;72.59;100037.69;5026700;28;20036;-21
2021/04/05 05:13:02;;;;;;;15.00;10.00;;;;;;;5.68;72.10;100035.38;5009050;28;20087;-20
2021/04/05 05:15:27;;;;;;;18.75;11.55;;;;;;;5.94;70.22;100024.22;5009154;28;20133;-21
2021/04/05 05:17:53;;;;;;;18.17;10.95;;;;;;;6.17;70.49;100036.47;5008998;28;20033;-21
2021/04/05 05:20:19;;;;;;;14.15;8.68;;;;;;;5.98;70.77;100036.09;5011283;28;20033;-21
2021/04/05 05:22:50;;;;;;;15.05;9.25;;;;;;;6.01;71.24;100035.75;5029913;28;20032;-21
2021/04/05 05:25:18;;;;;;;36.88;19.17;;;;;;;5.95;70.97;100025.91;4996220;28;20312;-21
2021/04/05 05:27:46;;;;;;;16.93;10.17;;;;;;;5.79;70.86;100005.78;5012495;28;20033;-21
2021/04/05 05:30:20;;;;;;;14.48;9.23;;;;;;;6.03;70.75;100023.13;5012039;28;20122;-21
2021/04/05 05:32:49;;;;;;;12.15;7.97;;;;;;;6.24;70.11;100032.06;5013549;28;20034;-21
2021/04/05 05:35:16;;;;;;;13.25;8.68;;;;;;;6.13;70.61;100043.16;5029850;28;20044;-20
2021/04/05 05:37:42;;;;;;;12.65;7.60;;;;;;;6.41;69.78;100057.25;5029843;28;20532;-21
2021/04/05 05:40:08;;;;;;;14.27;8.93;;;;;;;6.15;71.29;100059.66;5012041;28;20034;-21
2021/04/05 05:42:55;;;;;;;12.02;7.30;;;;;;;6.65;69.04;100057.84;5012120;28;20512;-22
2021/04/05 05:45:23;;;;;;;11.05;7.50;;;;;;;6.37;69.39;100055.19;5014490;28;20030;-21
2021/04/05 05:47:56;;;;;;;16.38;9.13;;;;;;;6.41;69.99;100062.53;4995641;28;20063;-21
2021/04/05 05:50:44;;;;;;;15.45;9.57;;;;;;;6.13;71.55;100048.44;4995978;28;20434;-21
2021/04/05 05:53:28;;;;;;;14.10;9.18;;;;;;;6.06;71.34;100068.75;5012053;28;20035;-21
2021/04/05 05:56:21;;;;;;;11.13;6.95;;;;;;;6.11;71.78;100058.41;5029515;28;20068;-21
2021/04/05 05:59:14;;;;;;;9.85;6.57;;;;;;;5.91;71.21;100072.25;5014396;28;20049;-21
2021/04/05 06:02:17;;;;;;;10.20;6.53;;;;;;;5.84;73.73;100066.91;5029760;28;20033;-22
2021/04/05 06:05:13;;;;;;;11.13;7.28;;;;;;;6.02;72.25;100049.78;4995428;28;20042;-21
2021/04/05 06:08:16;;;;;;;12.20;7.78;;;;;;;6.65;70.21;100073.75;5029123;28;20043;-20
2021/04/05 06:10:53;;;;;;;12.60;8.68;;;;;;;6.64;70.92;100080.06;5028977;28;20024;-21
2021/04/05 06:13:31;;;;;;;17.17;9.75;;;;;;;6.64;70.72;100085.38;5029131;28;20037;-22
2021/04/05 06:16:35;;;;;;;11.18;6.95;;;;;;;6.89;70.52;100092.88;5028920;28;20056;-21
2021/04/05 06:19:15;;;;;;;11.57;6.85;;;;;;;6.62;71.22;100084.75;5029227;28;20791;-20
2021/04/05 06:21:44;;;;;;;10.27;5.32;;;;;;;6.56;71.05;100090.78;5029014;28;20029;-21
2021/04/05 06:24:45;;;;;;;8.15;4.47;;;;;;;6.42;71.13;100095.19;5028465;28;20030;-21
2021/04/05 06:27:16;;;;;;;8.98;5.80;;;;;;;6.22;72.20;100095.00;5025679;28;20037;-21
2021/04/05 06:30:05;;;;;;;8.90;5.15;;;;;;;6.30;72.35;100097.50;5010972;28;20036;-20
2021/04/05 06:33:08;;;;;;;10.02;5.50;;;;;;;6.33;71.58;100104.25;5010877;28;20083;-21
2021/04/05 06:35:52;;;;;;;11.02;5.38;;;;;;;6.12;73.59;100110.38;5028792;28;20398;-21
2021/04/05 06:38:43;;;;;;;10.13;5.95;;;;;;;6.36;73.24;100101.22;5028585;28;20044;-21
2021/04/05 06:41:34;;;;;;;53.90;22.20;;;;;;;6.60;71.01;100121.22;4994817;28;20059;-21
2021/04/05 06:44:29;;;;;;;30.35;12.80;;;;;;;6.61;71.59;100107.75;5028497;28;20032;-20
2021/04/05 06:47:32;;;;;;;12.07;6.75;;;;;;;6.84;71.22;100123.44;5013371;28;20061;-21
2021/04/05 06:50:18;;;;;;;14.30;8.20;;;;;;;6.47;71.42;100103.34;5028250;28;20866;-21
2021/04/05 06:53:14;;;;;;;11.65;7.03;;;;;;;6.46;71.50;100100.88;4996133;28;20120;-21
2021/04/05 06:55:56;;;;;;;12.45;7.97;;;;;;;6.61;71.03;100120.19;5028068;28;20072;-22
2021/04/05 06:58:25;;;;;;;16.70;9.63;;;;;;;6.63;71.22;100123.47;5028322;28;20915;-21
2021/04/05 07:00:59;;;;;;;;;;;;;;;6.52;71.85;100126.63;5028468;28;20402;-20
2021/04/05 07:03:46;;;;;;;21.08;10.60;;;;;;;6.94;70.06;100131.03;5028078;28;20741;-21
2021/04/05 07:06:47;;;;;;;20.38;11.80;;;;;;;6.87;71.44;100132.84;5027956;28;20037;-21
2021/04/05 07:09:40;;;;;;;35.38;17.17;;;;;;;6.46;71.83;100135.31;5028037;28;20025;-22
2021/04/05 07:12:12;;;;;;;31.52;16.38;;;;;;;6.78;71.29;100142.75;5002519;28;20045;-22
2021/04/05 07:14:56;;;;;;;23.08;13.18;;;;;;;6.52;72.32;100145.16;5028053;28;20034;-21
2021/04/05 07:17:30;;;;;;;22.58;13.73;;;;;;;6.66;71.76;100144.28;5027678;28;20038;-21
2021/04/05 07:20:03;;;;;;;22.45;14.60;;;;;;;6.76;72.48;100150.09;4993836;28;20080;-21
2021/04/05 07:22:28;;;;;;;35.00;23.70;;;;;;;6.92;72.86;100151.63;5027505;28;20061;-22
2021/04/05 07:25:06;;;;;;;26.58;17.48;;;;;;;7.00;70.96;100162.06;5027811;28;20115;-21
2021/04/05 07:27:40;;;;;;;20.45;13.20;;;;;;;6.92;71.00;100148.16;5027686;28;20386;-21
2021/04/05 07:30:21;;;;;;;23.13;14.63;;;;;;;6.67;71.67;100155.72;5010368;28;20033;-19
2021/04/05 07:33:24;;;;;;;21.10;14.07;;;;;;;7.30;70.22;100167.19;5010100;28;20044;-22
2021/04/05 07:35:58;;;;;;;18.52;12.50;;;;;;;7.13;69.71;100169.31;5027579;28;20029;-20
2021/04/05 07:38:30;;;;;;;19.58;12.15;;;;;;;6.48;71.27;100173.03;5027310;28;20033;-21
2021/04/05 07:41:20;;;;;;;25.35;15.45;;;;;;;6.36;72.37;100186.00;5027337;28;20401;-21
2021/04/05 07:44:03;;;;;;;23.75;15.32;;;;;;;6.39;71.93;100164.41;5009719;28;20026;-21
2021/04/05 07:46:49;;;;;;;19.55;12.27;;;;;;;6.31;72.44;100183.88;5010163;28;20468;-20
2021/04/05 07:49:21;;;;;;;19.92;14.13;;;;;;;6.18;72.91;100165.22;4989991;28;20061;-21
2021/04/05 07:51:48;;;;;;;19.20;12.68;;;;;;;6.68;72.02;100186.50;5007539;28;20057;-21
2021/04/05 07:54:14;;;;;;;20.02;12.35;;;;;;;6.75;72.17;100168.81;5007523;28;20030;-21
2021/04/05 07:57:01;;;;;;;19.52;12.60;;;;;;;6.96;72.10;100197.13;5006330;28;20036;-20
2021/04/05 07:59:46;;;;;;;19.90;12.95;;;;;;;6.82;70.49;100186.44;5007730;28;20049;-19
2021/04/05 08:02:11;;;;;;;17.55;11.98;;;;;;;6.92;70.93;100201.19;5006890;28;20029;-20
2021/04/05 08:04:55;;;;;;;18.88;12.73;;;;;;;7.01;70.46;100205.34;5007527;28;20564;-21
2021/04/05 08:07:29;;;;;;;19.85;12.13;;;;;;;6.89;70.13;100191.78;5006407;28;20390;-20
2021/04/05 08:10:04;;;;;;;18.80;13.77;;;;;;;6.92;70.64;100202.00;5007487;28;20030;-21
2021/04/05 08:12:37;;;;;;;20.83;13.30;;;;;;;6.98;70.47;100190.63;5005863;28;20026;-20
2021/04/05 08:15:27;;;;;;;20.40;13.00;;;;;;;7.14;70.10;100215.22;5006417;28;20155;-20
2021/04/05 08:18:01;;;;;;;18.08;12.55;;;;;;;7.06;70.54;100213.53;5007252;28;20065;-21
2021/04/05 08:20:43;;;;;;;21.13;13.27;;;;;;;7.04;70.47;100184.53;5007270;28;20038;-23
2021/04/05 08:23:12;;;;;;;20.48;13.10;;;;;;;7.41;70.03;100216.22;5006431;28;20490;-21
2021/04/05 08:26:02;;;;;;;22.48;14.20;;;;;;;7.62;70.12;100218.81;5007279;28;20502;-21
2021/04/05 08:28:52;;;;;;;18.13;12.10;;;;;;;7.75;67.77;100222.56;5007223;28;20029;-21
2021/04/05 08:31:30;;;;;;;19.15;12.98;;;;;;;7.67;70.62;100220.06;5005976;28;20116;-20
2021/04/05 08:34:14;;;;;;;18.35;12.52;;;;;;;7.99;69.82;100223.91;5007583;28;20823;-20
2021/04/05 08:36:52;;;;;;;19.58;13.00;;;;;;;8.09;68.50;100223.50;5006959;28;20081;-21
2021/04/05 08:39:30;;;;;;;18.80;12.90;;;;;;;8.01;67.52;100204.09;5005881;28;20034;-21
2021/04/05 08:41:55;;;;;;;;;;;;;;;8.48;67.62;100225.53;5007874;28;20030;-21
2021/04/05 08:44:45;;;;;;;19.17;13.07;;;;;;;8.62;67.08;100221.03;5006996;28;19920;-21
2021/04/05 08:47:15;;;;;;;19.08;13.02;;;;;;;8.47;66.70;100210.56;5006917;28;20092;-21
2021/04/05 08:49:44;;;;;;;19.20;12.25;;;;;;;8.37;67.33;100200.31;4989458;28;20057;-20
2021/04/05 08:52:11;;;;;;;22.48;14.18;;;;;;;8.12;68.12;100223.13;4989342;28;20122;-20
2021/04/05 08:54:37;;;;;;;19.58;12.30;;;;;;;8.38;67.80;100214.44;5009453;28;20124;-20
2021/04/05 08:57:05;;;;;;;19.13;12.77;;;;;;;8.37;66.39;100199.47;5010655;28;20030;-20
2021/04/05 08:59:39;;;;;;;20.77;14.03;;;;;;;8.60;67.13;100199.13;5010457;28;20026;-21
2021/04/05 09:02:24;;;;;;;17.55;13.27;;;;;;;8.73;67.04;100215.13;4993903;28;20272;-21
2021/04/05 09:04:49;;;;;;;16.75;12.05;;;;;;;8.82;64.93;100197.94;5010339;28;20044;-21
2021/04/05 09:07:33;;;;;;;16.42;11.43;;;;;;;8.98;64.30;100207.34;5009263;28;20038;-20
2021/04/05 09:10:06;;;;;;;17.60;12.68;;;;;;;9.36;64.93;100195.28;5010514;28;20105;-20
2021/04/05 09:12:35;;;;;;;18.08;13.07;;;;;;;9.67;64.43;100201.75;5010588;28;20058;-21
2021/04/05 09:15:10;;;;;;;17.02;12.43;;;;;;;9.77;61.61;100199.47;5010640;28;20774;-21
2021/04/05 09:18:00;;;;;;;16.23;11.25;;;;;;;9.63;63.44;100204.00;5009107;28;20409;-21
2021/04/05 09:21:00;;;;;;;15.23;10.85;;;;;;;9.84;63.02;100193.06;5008656;28;20044;-21
2021/04/05 09:23:37;;;;;;;14.63;10.55;;;;;;;9.65;63.61;100186.78;5010659;28;20834;-21
2021/04/05 09:26:08;;;;;;;15.73;10.73;;;;;;;9.76;63.32;100187.97;5010520;28;20022;-21
2021/04/05 09:28:38;;;;;;;16.13;10.27;;;;;;;10.04;62.32;100174.34;5009929;28;20036;-21
2021/04/05 09:31:28;;;;;;;13.55;9.35;;;;;;;10.45;59.03;100186.44;5010091;28;20040;-21
2021/04/05 09:34:19;;;;;;;12.85;8.40;;;;;;;10.14;59.20;100155.22;5010205;28;20064;-26
2021/04/05 09:37:10;;;;;;;13.15;9.02;;;;;;;10.30;60.25;100175.25;4993434;28;20034;-20
2021/04/05 09:39:47;;;;;;;12.45;8.88;;;;;;;10.82;60.40;100175.91;5008666;28;20109;-22
2021/04/05 09:42:35;;;;;;;12.05;7.63;;;;;;;10.79;54.97;100164.88;5009616;28;20034;-22
2021/04/05 09:45:15;;;;;;;12.52;8.32;;;;;;;10.78;57.28;100173.91;5008893;28;20061;-21
2021/04/05 09:48:14;;;;;;;13.07;8.48;;;;;;;10.44;60.11;100175.97;5009757;28;20551;-22
2021/04/05 09:51:11;;;;;;;13.50;9.15;;;;;;;10.33;57.31;100166.81;5027363;28;20053;-22
2021/04/05 09:53:57;;;;;;;11.88;6.63;;;;;;;10.85;57.70;100164.00;5029227;28;20138;-21
2021/04/05 09:56:24;;;;;;;11.60;7.85;;;;;;;11.20;55.77;100160.81;5011388;28;20034;-21
2021/04/05 09:58:51;;;;;;;9.98;6.57;;;;;;;11.11;56.81;100133.56;4995291;28;20036;-22
2021/04/05 10:01:20;;;;;;;11.80;8.33;;;;;;;11.76;59.32;100158.97;5012007;28;20033;-22
2021/04/05 10:03:46;;;;;;;10.32;7.30;;;;;;;12.04;54.93;100150.41;4995365;28;20053;-22
2021/04/05 10:06:13;;;;;;;11.77;8.50;;;;;;;11.81;56.46;100151.06;5010738;28;20030;-21
2021/04/05 10:08:39;;;;;;;9.20;5.63;;;;;;;11.53;56.38;100155.13;4995186;28;20117;-22
2021/04/05 10:11:04;;;;;;;9.75;6.95;;;;;;;11.72;53.13;100144.41;5011491;28;20029;-21
2021/04/05 10:13:30;;;;;;;10.35;6.90;;;;;;;11.65;54.76;100131.16;5011295;28;20059;-21
2021/04/05 10:15:56;;;;;;;8.82;6.18;;;;;;;11.60;53.96;100145.16;4978917;28;20072;-22
2021/04/05 10:18:22;;;;;;;10.00;7.13;;;;;;;11.44;54.37;100129.72;4995214;28;20034;-22
2021/04/05 10:20:49;;;;;;;11.93;7.32;;;;;;;11.38;51.77;100141.31;4994918;28;20064;-22
2021/04/05 10:23:18;;;;;;;14.00;8.30;;;;;;;12.23;55.70;100148.50;5011403;28;20543;-22
2021/04/05 10:25:44;;;;;;;12.25;7.88;;;;;;;13.12;54.22;100139.66;5028992;28;20367;-20
2021/04/05 10:28:11;;;;;;;11.02;7.50;;;;;;;12.93;52.63;100130.94;5028798;28;20862;-21
2021/04/05 10:30:37;;;;;;;12.02;6.97;;;;;;;13.30;51.30;100133.38;4995285;28;20044;-22
2021/04/05 10:33:06;;;;;;;9.38;7.00;;;;;;;12.59;50.18;100103.94;5028741;28;20053;-22
2021/04/05 10:35:34;;;;;;;9.93;7.03;;;;;;;12.57;52.47;100116.72;5028770;28;20029;-21
2021/04/05 10:38:02;;;;;;;11.00;8.00;;;;;;;11.99;54.78;100121.69;4994741;28;20557;-21
2021/04/05 10:40:27;;;;;;;10.65;7.38;;;;;;;11.59;55.92;100103.47;5010751;28;20033;-21
2021/04/05 10:42:54;;;;;;;9.60;7.40;;;;;;;11.65;55.69;100120.47;5010998;28;20413;-21
2021/04/05 10:45:23;;;;;;;10.35;7.07;;;;;;;11.94;53.30;100112.72;5011040;28;20036;-20
2021/04/05 10:47:52;;;;;;;9.27;6.80;;;;;;;12.95;47.98;100108.22;5010382;28;20057;-21
2021/04/05 10:50:18;;;;;;;9.82;6.63;;;;;;;13.64;48.90;100107.56;5027909;28;20140;-22
2021/04/05 10:52:44;;;;;;;10.32;7.15;;;;;;;13.85;48.17;100095.38;5010974;28;20374;-21
2021/04/05 10:55:21;;;;;;;9.27;6.75;;;;;;;14.16;46.03;100106.66;5010621;28;20028;-21
2021/04/05 10:57:51;;;;;;;9.35;6.90;;;;;;;13.68;50.19;100105.25;5028489;28;20031;-21
2021/04/05 11:00:18;;;;;;;10.10;7.38;;;;;;;14.36;46.50;100100.81;5010470;28;20037;-21
2021/04/05 11:02:49;;;;;;;9.57;5.75;;;;;;;14.81;46.70;100095.41;4994478;28;20025;-21
2021/04/05 11:05:16;;;;;;;8.57;6.30;;;;;;;15.14;46.29;100082.16;5010440;28;20529;-22
2021/04/05 11:07:42;;;;;;;29.40;12.98;;;;;;;15.42;44.19;100083.84;4994239;28;20026;-22
2021/04/05 11:10:09;;;;;;;21.38;9.48;;;;;;;15.55;46.16;100085.34;5010269;28;20091;-22
2021/04/05 11:12:37;;;;;;;6.77;4.80;;;;;;;15.32;42.10;100092.59;5027948;28;20048;-22
2021/04/05 11:15:05;;;;;;;8.23;5.20;;;;;;;14.75;43.82;100085.66;4994397;28;20044;-21
2021/04/05 11:17:31;;;;;;;6.45;4.90;;;;;;;14.35;44.55;100075.88;4993095;28;20034;-22
2021/04/05 11:19:56;;;;;;;7.50;5.05;;;;;;;14.19;44.91;100052.53;5010076;28;20032;-22
2021/04/05 11:22:23;;;;;;;8.52;5.97;;;;;;;15.07;43.28;100063.53;5027640;28;20033;-21
2021/04/05 11:25:06;;;;;;;23.42;9.65;;;;;;;14.55;43.69;100071.91;5027668;28;20029;-21
2021/04/05 11:27:34;;;;;;;6.68;4.15;;;;;;;14.09;45.20;100065.78;5027737;28;20473;-22
2021/04/05 11:30:04;;;;;;;7.13;5.05;;;;;;;13.60;45.64;100067.03;5010385;28;20029;-21
2021/04/05 11:32:31;;;;;;;6.55;4.45;;;;;;;14.29;45.54;100058.06;5027099;28;20033;-21
2021/04/05 11:34:58;;;;;;;6.80;4.28;;;;;;;15.59;45.34;100049.66;5010055;28;20030;-21
2021/04/05 11:37:27;;;;;;;4.88;3.30;;;;;;;16.23;40.70;100048.16;5009839;28;20065;-21
2021/04/05 11:40:05;;;;;;;5.63;3.50;;;;;;;15.96;42.19;100037.44;4993501;28;20464;-21
2021/04/05 11:42:36;;;;;;;11.20;4.68;;;;;;;15.58;42.97;100042.66;5009908;28;20025;-21
2021/04/05 11:45:03;;;;;;;4.97;3.00;;;;;;;15.73;41.33;100044.72;5010690;28;20104;-21
2021/04/05 11:47:34;;;;;;;3.10;2.38;;;;;;;15.74;38.96;100030.22;5027789;28;20463;-21